Time;durP1;ratioP1;P1;durP2;ratioP2;P2;SDS_P1;SDS_P2;PMS_P1;PMS_P2;Temp;Humidity;BMP_temperature;BMP_pressure;BME280_temperature;BME280_humidity;BME280_pressure;Samples;Min_cycle;Max_cycle;Signal;HPM_P1;HPM_P2
2021/06/01 00:01:01;;;;;;;7.58;3.45;;;;;;;17.32;38.17;100394.15;2479185;77;30797;-81
2021/06/01 00:04:22;;;;;;;10.00;4.33;;;;;;;17.31;38.34;100397.64;2479211;78;30678;-79
2021/06/01 00:07:43;;;;;;;8.68;4.40;;;;;;;17.26;38.55;100389.34;2471322;78;25469;-78
2021/06/01 00:11:05;;;;;;;11.65;4.70;;;;;;;17.26;38.46;100389.34;2448404;78;31212;-80
2021/06/01 00:14:29;;;;;;;8.15;4.85;;;;;;;17.24;38.79;100385.38;2436467;81;25373;-82
2021/06/01 00:17:50;;;;;;;7.72;4.17;;;;;;;17.21;38.86;100391.55;2463220;78;25161;-77
2021/06/01 00:21:12;;;;;;;8.68;4.50;;;;;;;17.18;38.92;100388.06;2532634;77;25501;-81
2021/06/01 00:24:34;;;;;;;14.13;4.58;;;;;;;17.16;38.84;100389.81;2532316;77;25586;-82
2021/06/01 00:27:55;;;;;;;10.43;5.10;;;;;;;17.15;39.19;100393.33;2532739;78;25505;-78
2021/06/01 00:31:16;;;;;;;9.95;4.75;;;;;;;17.11;39.36;100387.61;2532334;78;30678;-81
2021/06/01 00:34:39;;;;;;;10.18;4.50;;;;;;;16.98;39.44;100387.67;2532863;78;25446;-78
2021/06/01 00:38:03;;;;;;;14.68;5.10;;;;;;;16.86;39.94;100389.44;2532921;78;25190;-78
2021/06/01 00:41:24;;;;;;;9.03;5.17;;;;;;;16.86;39.94;100389.44;2515073;77;25484;-78
2021/06/01 00:44:45;;;;;;;10.13;5.50;;;;;;;16.85;40.03;100392.97;2472417;80;30632;-81
2021/06/01 00:48:06;;;;;;;6.92;4.70;;;;;;;16.83;40.07;100393.40;2457015;78;25563;-81
2021/06/01 00:51:27;;;;;;;10.65;4.83;;;;;;;16.73;40.18;100382.84;2433032;81;25486;-82
2021/06/01 00:54:48;;;;;;;8.73;5.50;;;;;;;16.73;40.18;100382.84;2434010;81;30896;-80
2021/06/01 00:58:09;;;;;;;7.45;5.12;;;;;;;16.70;40.47;100383.28;2434131;81;30974;-82
2021/06/01 01:01:30;;;;;;;11.22;5.25;;;;;;;16.66;40.55;100378.91;2448280;78;25462;-82
2021/06/01 01:04:51;;;;;;;10.13;4.80;;;;;;;16.59;40.72;100379.35;2448490;80;25248;-82
2021/06/01 01:12:09;;;;;;;5.90;5.37;;;;;;;16.47;41.20;100374.12;2448210;80;31320;-79
2021/06/01 01:15:33;;;;;;;8.85;4.65;;;;;;;16.46;41.33;100381.11;2376767;80;25686;-79
2021/06/01 01:19:14;;;;;;;11.97;5.83;;;;;;;16.44;41.36;100377.62;2395888;82;25507;-80
2021/06/01 01:22:42;;;;;;;13.60;5.42;;;;;;;16.47;41.49;100381.58;2397089;82;25442;-80
2021/06/01 01:26:16;;;;;;;8.78;6.30;;;;;;;16.48;41.60;100380.69;2396579;82;25573;-82
2021/06/01 01:29:46;;;;;;;7.87;5.28;;;;;;;16.50;41.76;100376.72;2394567;82;25621;-81
2021/06/01 01:33:20;;;;;;;8.18;5.17;;;;;;;16.48;41.75;100371.92;2396330;82;25513;-81
2021/06/01 01:36:43;;;;;;;8.43;5.53;;;;;;;16.51;41.87;100380.69;2397023;82;25560;-81
2021/06/01 01:40:06;;;;;;;10.90;5.70;;;;;;;16.47;41.96;100378.94;2396717;82;25180;-80
2021/06/01 01:43:31;;;;;;;14.40;5.72;;;;;;;16.43;42.07;100367.08;2359505;82;25676;-81
2021/06/01 01:47:05;;;;;;;8.65;5.30;;;;;;;16.38;42.15;100371.05;2355624;82;25574;-81
2021/06/01 01:50:21;;;;;;;8.08;5.62;;;;;;;16.40;42.32;100372.34;2343195;83;25496;-81
2021/06/01 01:53:56;;;;;;;11.78;5.58;;;;;;;16.25;42.67;100337.72;2412214;81;26244;-81
2021/06/01 01:57:18;;;;;;;13.75;6.95;;;;;;;16.25;42.67;100337.72;2424387;81;25339;-80
2021/06/01 02:00:39;;;;;;;11.73;6.80;;;;;;;16.36;42.64;100365.34;2449900;78;25554;-79
2021/06/01 02:04:01;;;;;;;11.70;6.40;;;;;;;16.33;42.95;100360.07;2464391;80;25600;-78
2021/06/01 02:07:22;;;;;;;7.62;6.33;;;;;;;16.29;43.08;100364.45;2464332;78;25182;-80
2021/06/01 02:10:43;;;;;;;9.58;6.05;;;;;;;16.25;43.18;100362.27;2463611;79;25503;-80
2021/06/01 02:14:04;;;;;;;12.73;6.30;;;;;;;16.22;43.40;100355.69;2464548;80;30723;-81
2021/06/01 02:17:25;;;;;;;8.83;5.95;;;;;;;16.20;43.49;100362.72;2465067;80;25768;-80
2021/06/01 02:20:51;;;;;;;8.55;5.92;;;;;;;16.17;43.61;100352.64;2448146;79;31219;-81
2021/06/01 02:24:33;;;;;;;12.30;6.10;;;;;;;16.14;43.70;100355.27;2421348;81;25482;-81
2021/06/01 02:27:59;;;;;;;9.38;6.28;;;;;;;16.17;43.85;100356.58;2421239;81;25517;-80
2021/06/01 02:31:28;;;;;;;9.95;6.30;;;;;;;16.15;44.02;100357.88;2460058;79;26310;-83
2021/06/01 02:34:50;;;;;;;;;;;;;;;16.15;44.16;100359.20;2467010;80;25332;-80
2021/06/01 02:38:11;;;;;;;7.55;6.03;;;;;;;16.15;44.24;100352.63;2464736;80;25322;-81
2021/06/01 02:41:33;;;;;;;10.15;5.95;;;;;;;16.12;44.26;100349.98;2479658;78;25444;-81
2021/06/01 02:44:54;;;;;;;12.25;6.30;;;;;;;16.13;44.39;100348.23;2509596;77;25475;-80
2021/06/01 02:48:19;;;;;;;12.82;6.42;;;;;;;16.13;44.34;100345.19;2490731;78;25419;-81
2021/06/01 02:51:41;;;;;;;12.03;6.80;;;;;;;16.15;44.41;100350.44;2463914;79;25473;-82
2021/06/01 02:55:05;;;;;;;21.33;6.97;;;;;;;16.15;44.32;100350.44;2464750;80;25224;-81
2021/06/01 02:58:26;;;;;;;9.53;6.03;;;;;;;16.19;44.35;100344.29;2464980;79;25525;-77
2021/06/01 03:01:50;;;;;;;11.45;5.97;;;;;;;16.21;44.30;100349.13;2464958;80;31244;-82
2021/06/01 03:05:12;;;;;;;12.37;6.33;;;;;;;16.24;44.26;100349.13;2464734;78;25624;-80
2021/06/01 03:08:33;;;;;;;12.82;6.67;;;;;;;16.29;44.23;100343.41;2464697;80;25518;-78
2021/06/01 03:11:54;;;;;;;11.53;6.50;;;;;;;16.34;44.32;100353.95;2464193;79;25516;-78
2021/06/01 03:15:16;;;;;;;9.15;6.22;;;;;;;16.35;44.30;100350.44;2464960;79;31251;-78
2021/06/01 03:18:36;;;;;;;11.28;7.28;;;;;;;16.42;44.20;100345.60;2461780;77;25265;-77
2021/06/01 03:21:57;;;;;;;7.42;6.72;;;;;;;16.46;44.19;100344.72;2444986;80;30886;-78
2021/06/01 03:25:18;;;;;;;11.57;6.53;;;;;;;16.54;44.10;100352.18;2458039;80;25495;-78
2021/06/01 03:28:40;;;;;;;10.80;6.70;;;;;;;16.56;43.97;100353.03;2457754;78;25336;-81
2021/06/01 03:32:01;;;;;;;11.00;7.17;;;;;;;16.60;43.89;100344.25;2457444;79;25605;-77
2021/06/01 03:35:26;;;;;;;6.37;5.75;;;;;;;16.63;43.92;100342.06;2458134;79;25488;-77
2021/06/01 03:38:50;;;;;;;12.07;6.87;;;;;;;16.67;43.89;100334.59;2458158;80;25130;-80
2021/06/01 03:42:12;;;;;;;8.85;7.05;;;;;;;16.68;43.75;100326.70;2497101;77;25436;-79
2021/06/01 03:45:33;;;;;;;9.43;7.05;;;;;;;16.74;43.66;100331.09;2533665;78;25390;-80
2021/06/01 03:48:54;;;;;;;12.93;7.12;;;;;;;16.81;43.61;100335.48;2533634;78;25557;-81
2021/06/01 03:52:15;;;;;;;12.30;6.22;;;;;;;16.87;43.66;100334.12;2533302;76;25497;-80
2021/06/01 03:55:36;;;;;;;9.23;6.80;;;;;;;16.91;43.64;100337.66;2534107;78;30629;-78
2021/06/01 03:58:57;;;;;;;15.10;6.70;;;;;;;16.96;43.58;100335.42;2534078;78;25460;-80
2021/06/01 04:02:18;;;;;;;10.45;6.80;;;;;;;17.02;43.66;100340.25;2526453;77;30801;-79
2021/06/01 04:05:38;;;;;;;10.78;6.97;;;;;;;17.02;43.59;100333.67;2526220;78;25405;-78
2021/06/01 04:08:59;;;;;;;9.23;7.33;;;;;;;17.01;43.65;100336.75;2525898;78;25529;-80
2021/06/01 04:12:20;;;;;;;12.55;6.95;;;;;;;17.06;43.86;100335.41;2525537;78;25216;-79
2021/06/01 04:15:41;;;;;;;20.82;6.78;;;;;;;17.08;43.75;100330.58;2526000;78;29779;-80
2021/06/01 04:19:02;;;;;;;14.98;7.03;;;;;;;17.15;43.69;100334.94;2525990;78;25461;-81
2021/06/01 04:22:26;;;;;;;8.25;6.78;;;;;;;17.19;43.76;100331.84;2525827;78;25496;-81
2021/06/01 04:25:50;;;;;;;9.50;7.05;;;;;;;17.27;43.61;100331.36;2526038;78;31008;-79
2021/06/01 04:29:11;;;;;;;9.73;6.75;;;;;;;17.36;43.65;100333.95;2525688;78;25605;-77
2021/06/01 04:32:34;;;;;;;9.45;7.00;;;;;;;17.46;43.54;100330.83;2502174;76;25475;-80
2021/06/01 04:35:54;;;;;;;10.45;7.45;;;;;;;17.46;43.57;100317.66;2481365;79;31059;-78
2021/06/01 04:39:18;;;;;;;12.28;6.72;;;;;;;17.62;43.46;100340.86;2481634;79;30817;-82
2021/06/01 04:42:39;;;;;;;13.80;6.53;;;;;;;17.70;43.39;100336.41;2500530;77;25439;-81
2021/06/01 04:46:00;;;;;;;13.00;7.10;;;;;;;17.76;43.39;100335.08;2496567;77;30840;-80
2021/06/01 04:49:21;;;;;;;10.70;6.83;;;;;;;17.79;43.43;100338.16;2457055;76;25350;-78
2021/06/01 04:52:43;;;;;;;10.58;7.05;;;;;;;17.82;43.54;100337.69;2442581;79;25569;-78
2021/06/01 04:56:04;;;;;;;10.08;6.58;;;;;;;17.86;43.34;100343.81;2443112;79;25520;-80
2021/06/01 04:59:25;;;;;;;10.40;6.67;;;;;;;17.90;43.28;100338.49;2443066;81;25577;-80
2021/06/01 05:02:46;;;;;;;15.13;7.72;;;;;;;17.98;43.17;100336.23;2464428;79;30711;-82
2021/06/01 05:06:08;;;;;;;9.28;6.03;;;;;;;18.04;43.07;100337.07;2464934;79;26135;-77
2021/06/01 05:09:29;;;;;;;11.40;6.17;;;;;;;18.12;42.99;100339.64;2464518;79;25327;-78
2021/06/01 05:12:50;;;;;;;16.23;7.15;;;;;;;18.25;42.96;100341.30;2464514;79;25574;-82
2021/06/01 05:16:13;;;;;;;9.40;6.72;;;;;;;18.35;42.76;100343.41;2485832;77;30805;-81
2021/06/01 05:19:34;;;;;;;10.53;7.33;;;;;;;18.39;42.68;100333.25;2525224;76;25448;-82
2021/06/01 05:22:55;;;;;;;13.58;6.92;;;;;;;18.41;42.60;100341.59;2534073;78;30779;-81
2021/06/01 05:26:16;;;;;;;8.13;6.50;;;;;;;18.50;42.50;100343.28;2533688;77;25522;-80
2021/06/01 05:29:41;;;;;;;11.28;7.65;;;;;;;18.56;42.36;100339.28;2533707;78;30809;-79
2021/06/01 05:36:25;;;;;;;11.55;6.70;;;;;;;18.88;42.19;100344.69;2500535;79;25491;-77
2021/06/01 05:39:46;;;;;;;10.45;6.33;;;;;;;19.02;42.07;100345.40;2500853;79;26273;-77
2021/06/01 05:43:07;;;;;;;7.90;6.58;;;;;;;19.16;42.22;100352.29;2515347;78;30629;-77
2021/06/01 05:46:28;;;;;;;9.70;7.28;;;;;;;19.26;41.87;100349.52;2518623;78;25528;-75
2021/06/01 05:49:50;;;;;;;11.12;6.58;;;;;;;19.33;41.88;100351.17;2471497;76;25525;-76
2021/06/01 05:53:11;;;;;;;13.30;6.67;;;;;;;19.40;41.71;100351.98;2464813;79;25434;-75
2021/06/01 05:56:35;;;;;;;9.18;6.60;;;;;;;19.45;41.58;100347.97;2465025;80;25517;-80
2021/06/01 05:59:58;;;;;;;10.78;6.10;;;;;;;19.47;41.54;100343.52;2465252;79;25604;-75
2021/06/01 06:03:19;;;;;;;9.18;6.30;;;;;;;19.49;41.53;100348.35;2464206;80;25523;-76
2021/06/01 06:06:40;;;;;;;13.85;6.78;;;;;;;19.56;41.58;100350.88;2463385;78;30851;-77
2021/06/01 06:10:01;;;;;;;15.38;6.58;;;;;;;19.62;41.52;100348.61;2463547;80;30912;-81
2021/06/01 06:13:22;;;;;;;7.58;5.70;;;;;;;19.79;41.85;100348.40;2463044;79;25455;-79
2021/06/01 06:16:53;;;;;;;7.62;5.08;;;;;;;19.93;41.87;100344.22;2463645;80;25490;-80
2021/06/01 06:20:15;;;;;;;8.15;5.17;;;;;;;20.11;42.05;100344.38;2441436;80;25540;-79
2021/06/01 06:23:41;;;;;;;6.25;5.20;;;;;;;20.26;41.79;100348.98;2441739;79;26165;-80
2021/06/01 06:27:02;;;;;;;9.50;4.05;;;;;;;20.40;41.93;100347.88;2479665;77;25519;-81
2021/06/01 06:30:24;;;;;;;6.40;4.55;;;;;;;20.54;41.61;100353.83;2492837;79;25468;-80
2021/06/01 06:33:45;;;;;;;10.13;4.92;;;;;;;20.64;41.25;100350.56;2500539;79;25533;-80
2021/06/01 06:37:06;;;;;;;12.37;4.85;;;;;;;20.72;40.94;100350.86;2500798;79;31000;-80
2021/06/01 06:40:27;;;;;;;6.92;4.28;;;;;;;20.80;40.50;100352.03;2500687;79;25528;-80
2021/06/01 06:43:54;;;;;;;15.60;4.40;;;;;;;20.91;40.34;100355.80;2463463;78;25498;-80
2021/06/01 06:50:39;;;;;;;18.27;4.55;;;;;;;21.28;39.81;100353.28;2462588;79;25515;-79
2021/06/01 06:54:00;;;;;;;11.83;4.47;;;;;;;21.44;39.63;100357.39;2496270;79;25703;-80
2021/06/01 06:57:23;;;;;;;8.28;4.78;;;;;;;21.69;39.42;100348.42;2500518;79;25491;-82
2021/06/01 07:00:47;;;;;;;7.62;4.40;;;;;;;21.83;39.00;100356.53;2508641;77;25581;-83
2021/06/01 07:04:08;;;;;;;10.23;6.65;;;;;;;22.07;39.27;100350.66;2556259;77;25501;-82
2021/06/01 07:07:29;;;;;;;15.05;5.80;;;;;;;22.39;39.32;100351.67;2555948;77;25509;-82
2021/06/01 07:10:53;;;;;;;7.53;3.87;;;;;;;22.77;39.38;100345.33;2555570;77;25470;-82
2021/06/01 07:14:28;;;;;;;10.88;3.98;;;;;;;23.24;39.32;100348.48;2555882;77;25103;-81
2021/06/01 07:17:56;;;;;;;8.10;3.75;;;;;;;23.78;39.22;100345.09;2548144;77;25505;-82
2021/06/01 07:21:16;;;;;;;3.70;3.35;;;;;;;24.23;38.32;100347.21;2525190;78;25467;-81
2021/06/01 07:24:37;;;;;;;3.58;2.80;;;;;;;24.51;38.16;100350.30;2525264;78;25629;-81
2021/06/01 07:28:07;;;;;;;8.93;3.90;;;;;;;24.72;37.72;100346.01;2526447;78;25468;-83
2021/06/01 07:31:28;;;;;;;6.97;3.02;;;;;;;24.86;37.53;100349.05;2525726;78;25101;-83
2021/06/01 07:34:49;;;;;;;4.47;3.20;;;;;;;25.05;37.15;100346.59;2471758;79;25409;-80
2021/06/01 07:38:12;;;;;;;8.13;3.05;;;;;;;25.15;36.72;100349.36;2441164;81;25585;-82
2021/06/01 07:41:33;;;;;;;6.28;2.80;;;;;;;25.09;36.55;100343.34;2417686;81;26206;-84
2021/06/01 07:44:54;;;;;;;17.07;3.52;;;;;;;25.18;36.60;100348.39;2370586;82;25474;-84
2021/06/01 07:48:14;;;;;;;4.55;2.85;;;;;;;25.38;36.44;100350.27;2392241;80;25726;-83
2021/06/01 07:51:36;;;;;;;3.33;2.58;;;;;;;25.69;36.33;100349.98;2429790;81;25277;-84
2021/06/01 07:54:57;;;;;;;5.08;2.60;;;;;;;26.17;36.36;100354.77;2430519;81;25523;-84
2021/06/01 07:58:18;;;;;;;6.33;3.08;;;;;;;26.73;36.02;100351.50;2430953;81;25526;-84
2021/06/01 08:01:41;;;;;;;5.72;2.40;;;;;;;27.20;35.65;100341.84;2431512;81;25720;-80
2021/06/01 08:05:08;;;;;;;5.25;2.92;;;;;;;27.70;35.37;100350.66;2431875;81;25547;-82
2021/06/01 08:08:29;;;;;;;16.55;3.30;;;;;;;28.10;33.86;100344.73;2432781;80;25487;-85
2021/06/01 08:11:50;;;;;;;5.92;2.98;;;;;;;28.20;32.57;100348.22;2432439;81;26089;-85
2021/06/01 08:15:13;;;;;;;10.15;2.40;;;;;;;28.25;31.79;100342.17;2432990;80;25482;-78
2021/06/01 08:18:41;;;;;;;3.35;2.08;;;;;;;28.24;31.51;100347.59;2414838;79;25509;-84
2021/06/01 08:25:23;;;;;;;7.62;2.87;;;;;;;28.58;29.98;100350.79;2391905;82;25480;-85
2021/06/01 08:28:44;;;;;;;8.65;2.05;;;;;;;28.79;29.90;100348.83;2392347;82;25682;-82
2021/06/01 08:32:10;;;;;;;8.70;1.40;;;;;;;29.02;29.39;100354.33;2389778;82;25523;-84
2021/06/01 08:35:33;;;;;;;4.78;2.10;;;;;;;29.26;28.38;100347.23;2392711;82;25534;-86
2021/06/01 08:38:58;;;;;;;3.10;1.75;;;;;;;29.20;27.86;100349.80;2392895;82;25547;-88
2021/06/01 08:42:19;;;;;;;5.40;1.30;;;;;;;29.44;27.72;100346.25;2444440;79;25627;-86
2021/06/01 08:45:40;;;;;;;6.90;1.85;;;;;;;29.66;26.01;100353.99;2484180;77;25468;-88
2021/06/01 08:49:02;;;;;;;5.92;1.85;;;;;;;29.65;25.64;100340.17;2461710;79;25516;-88
2021/06/01 08:52:23;;;;;;;2.40;1.50;;;;;;;29.92;25.95;100345.80;2445321;80;25474;-85
2021/06/01 08:55:45;;;;;;;7.00;1.60;;;;;;;29.79;24.89;100341.59;2421819;80;25533;-84
2021/06/01 08:59:08;;;;;;;7.58;1.80;;;;;;;29.40;24.74;100332.61;2404262;81;25568;-86
2021/06/01 09:02:29;;;;;;;2.98;1.27;;;;;;;29.41;24.82;100334.33;2383513;80;25715;-83
2021/06/01 09:09:46;;;;;;;2.47;1.27;;;;;;;30.05;24.46;100336.07;2356123;83;25404;-88
2021/06/01 09:24:03;;;;;;;5.97;1.75;;;;;;;31.60;23.24;100333.88;2396709;82;25471;-84
2021/06/01 09:27:28;;;;;;;2.00;1.20;;;;;;;31.36;22.34;100335.83;2373674;82;25582;-83
2021/06/01 09:30:59;;;;;;;4.05;1.30;;;;;;;30.70;22.53;100329.58;2395473;82;25496;-84
2021/06/01 09:34:22;;;;;;;9.30;1.22;;;;;;;30.16;22.36;100334.58;2396029;82;25169;-85
2021/06/01 09:37:46;;;;;;;1.45;0.80;;;;;;;29.38;22.57;100327.78;2396653;82;25526;-85
2021/06/01 09:41:11;;;;;;;3.52;1.15;;;;;;;29.01;23.26;100313.68;2397201;82;25616;-86
2021/06/01 09:44:32;;;;;;;3.62;0.90;;;;;;;28.84;23.62;100308.33;2396480;81;25542;-84
2021/06/01 09:47:57;;;;;;;3.35;1.07;;;;;;;28.54;23.32;100312.15;2398727;82;25424;-86
2021/06/01 09:51:33;;;;;;;5.92;1.40;;;;;;;28.43;23.61;100314.91;2404047;82;25660;-85
2021/06/01 09:54:58;;;;;;;1.60;0.90;;;;;;;28.85;24.24;100315.41;2404106;81;25489;-84
2021/06/01 09:58:27;;;;;;;5.30;1.17;;;;;;;29.39;24.25;100317.42;2403703;82;25535;-87
2021/06/01 10:01:48;;;;;;;1.90;0.68;;;;;;;29.43;24.10;100314.98;2408787;80;25460;-83
2021/06/01 10:05:32;;;;;;;1.15;0.65;;;;;;;29.52;21.93;100313.58;2418286;81;25464;-84
2021/06/01 10:08:53;;;;;;;1.37;0.88;;;;;;;29.29;22.13;100316.20;2439543;81;25603;-83
2021/06/01 10:12:14;;;;;;;4.33;1.00;;;;;;;28.77;22.45;100309.61;2439662;80;25476;-85
2021/06/01 10:15:40;;;;;;;1.75;0.80;;;;;;;28.34;22.49;100311.80;2439953;80;25260;-86
2021/06/01 10:19:03;;;;;;;1.35;0.85;;;;;;;27.84;22.52;100311.18;2439955;81;25534;-85
2021/06/01 10:22:27;;;;;;;2.95;0.82;;;;;;;26.72;22.84;100306.98;2385544;81;25480;-86
2021/06/01 10:25:54;;;;;;;2.47;1.05;;;;;;;26.13;23.92;100307.27;2439521;79;25525;-88
2021/06/01 10:29:15;;;;;;;2.75;1.00;;;;;;;25.98;24.16;100306.09;2418341;81;25636;-82
2021/06/01 10:32:50;;;;;;;8.98;1.20;;;;;;;25.50;24.22;100305.77;2439374;81;25544;-83
2021/06/01 10:50:46;;;;;;;6.45;1.07;;;;;;;24.25;27.02;100284.54;2397398;82;25588;-82
2021/06/01 10:54:07;;;;;;;12.80;1.70;;;;;;;24.36;27.23;100286.36;2398282;82;25556;-81
2021/06/01 10:57:56;;;;;;;10.58;1.00;;;;;;;24.35;26.83;100283.30;2408962;79;25442;-83
2021/06/01 11:05:06;;;;;;;3.72;1.05;;;;;;;23.81;27.06;100292.22;2417243;80;25572;-82
2021/06/01 11:08:37;;;;;;;4.62;0.98;;;;;;;23.80;27.37;100288.69;2440908;79;25481;-79
2021/06/01 11:12:21;;;;;;;6.75;1.05;;;;;;;23.53;26.80;100293.53;2425972;79;25423;-78
2021/06/01 11:15:42;;;;;;;3.95;0.90;;;;;;;23.22;27.61;100282.94;2454837;79;25507;-83
2021/06/01 11:19:12;;;;;;;6.30;1.17;;;;;;;23.05;28.39;100287.00;2483562;79;25556;-87
2021/06/01 11:33:15;;;;;;;10.88;1.42;;;;;;;;;;2441032;79;25246;-85
2021/06/01 11:36:37;;;;;;;9.20;1.60;;;;;;;23.26;30.34;100281.95;2405128;80;25568;-80
2021/06/01 11:43:37;;;;;;;1.42;1.10;;;;;;;23.14;29.57;100286.30;2396893;82;25504;-84
2021/06/01 11:47:27;;;;;;;6.40;1.20;;;;;;;22.80;29.66;100289.44;2395765;82;25590;-84
2021/06/01 11:50:58;;;;;;;5.00;1.15;;;;;;;22.67;30.40;100286.70;2432897;79;25518;-86
2021/06/01 11:54:19;;;;;;;7.30;1.00;;;;;;;22.49;29.96;100290.75;2430145;79;25493;-85
2021/06/01 12:02:01;;;;;;;5.12;1.10;;;;;;;22.33;30.21;100282.30;2428548;79;25494;-88
2021/06/01 12:05:11;;;;;;;6.70;1.40;;;;;;;22.12;30.08;100286.36;2354378;82;25549;-90
2021/06/01 12:12:42;;;;;;;6.90;1.20;;;;;;;21.90;31.06;100298.41;2353984;82;25566;-92
2021/06/01 12:19:37;;;;;;;4.67;1.32;;;;;;;21.44;31.50;100290.22;2333390;81;25675;-84
2021/06/01 12:23:01;;;;;;;6.45;1.27;;;;;;;21.31;31.84;100296.20;2332032;84;25622;-90
2021/06/01 12:33:24;;;;;;;7.05;1.27;;;;;;;21.08;32.32;100282.11;2307857;84;25794;-89
2021/06/01 12:44:07;;;;;;;6.62;1.47;;;;;;;21.22;32.51;100293.29;2423035;79;25587;-88
2021/06/01 13:21:21;;;;;;;6.92;1.27;;;;;;;21.71;33.47;100278.09;2326670;82;25611;-84
2021/06/01 13:36:29;;;;;;;5.03;1.47;;;;;;;21.77;31.97;100273.97;2293069;86;25563;-84
2021/06/01 13:39:56;;;;;;;2.98;0.80;;;;;;;21.89;31.98;100281.62;2290889;84;25373;-83
2021/06/01 13:47:09;;;;;;;3.40;1.07;;;;;;;22.01;31.48;100273.82;2292359;86;25651;-83
2021/06/01 13:50:56;;;;;;;4.53;0.98;;;;;;;22.10;31.47;100277.55;2324685;82;25284;-82
2021/06/01 13:58:19;;;;;;;3.08;1.20;;;;;;;22.31;31.11;100269.54;2367058;81;25549;-85
2021/06/01 15:29:02;;;;;;;5.58;1.10;;;;;;;22.68;30.59;100270.30;2250418;86;25515;-79
2021/06/01 15:51:04;;;;;;;6.25;1.30;;;;;;;22.23;30.48;100266.66;2312406;80;25470;-80
2021/06/01 15:54:54;;;;;;;3.17;0.90;;;;;;;22.10;30.65;100266.92;2447896;80;25624;-79
2021/06/01 16:13:06;;;;;;;14.03;2.10;;;;;;;21.63;31.33;100276.06;2370557;81;25833;-80
2021/06/01 16:23:53;;;;;;;2.22;1.45;;;;;;;21.52;31.64;100278.97;2345306;83;25694;-77
2021/06/01 16:41:40;;;;;;;2.92;1.00;;;;;;;21.34;31.89;100289.97;2416375;81;25596;-78
2021/06/01 17:03:38;;;;;;;5.65;1.30;;;;;;;20.85;32.50;100293.64;2528218;78;25641;-83
2021/06/01 17:07:05;;;;;;;5.45;1.40;;;;;;;20.73;32.76;100289.47;2491554;78;25528;-78
2021/06/01 17:14:04;;;;;;;3.62;1.20;;;;;;;20.69;32.88;100292.63;2494754;77;25555;-82
2021/06/01 17:17:28;;;;;;;6.08;1.15;;;;;;;20.71;32.97;100292.13;2556886;76;25564;-81
2021/06/01 17:35:05;;;;;;;9.58;1.60;;;;;;;20.65;33.25;100310.78;2543720;76;25526;-81
2021/06/01 17:38:31;;;;;;;4.08;1.17;;;;;;;20.55;33.25;100308.34;2543955;77;26200;-81
2021/06/01 17:41:57;;;;;;;4.33;1.32;;;;;;;20.56;33.38;100305.69;2543963;77;25455;-81
2021/06/01 17:45:22;;;;;;;7.33;1.52;;;;;;;20.53;33.37;100307.52;2544256;77;25608;-81
2021/06/01 17:48:55;;;;;;;7.45;1.30;;;;;;;20.51;33.49;100308.86;2477236;76;25537;-77
2021/06/01 17:52:19;;;;;;;5.92;1.40;;;;;;;20.37;33.59;100313.05;2516681;77;25572;-76
2021/06/01 17:55:42;;;;;;;4.50;1.42;;;;;;;20.25;33.84;100319.90;2517737;78;25587;-77
2021/06/01 17:59:02;;;;;;;7.50;1.72;;;;;;;20.24;34.02;100320.31;2492567;76;26231;-77
2021/06/01 18:02:23;;;;;;;8.53;2.17;;;;;;;20.30;34.00;100324.64;2525519;78;31433;-86
2021/06/01 18:05:47;;;;;;;9.23;2.02;;;;;;;20.28;34.05;100333.95;2529957;76;25550;-89
2021/06/01 19:29:52;;;;;;;6.85;1.80;;;;;;;20.60;34.34;100427.02;2477922;79;26170;-80
2021/06/01 19:52:13;;;;;;;11.47;1.73;;;;;;;20.87;34.42;100442.89;2417238;81;25703;-83
2021/06/01 19:55:35;;;;;;;4.33;1.52;;;;;;;20.89;34.51;100445.04;2416853;81;25679;-81
2021/06/01 19:59:09;;;;;;;5.28;1.30;;;;;;;20.85;34.46;100441.57;2401450;81;25718;-80
2021/06/01 20:02:33;;;;;;;3.90;1.57;;;;;;;20.82;34.52;100444.73;2394833;82;25694;-81
2021/06/01 20:05:55;;;;;;;5.08;2.00;;;;;;;20.80;34.61;100447.42;2408729;79;25236;-82
2021/06/01 20:09:24;;;;;;;17.15;2.17;;;;;;;20.73;34.60;100453.27;2448017;80;25715;-81
2021/06/01 20:16:22;;;;;;;4.78;1.87;;;;;;;20.64;34.49;100457.39;2363925;83;25659;-81
2021/06/01 20:19:43;;;;;;;;;;;;;;;20.58;34.59;100457.94;2335547;84;25899;-82
2021/06/01 20:23:11;;;;;;;6.17;2.50;;;;;;;20.56;34.71;100461.09;2337177;84;25683;-82
2021/06/01 20:26:34;;;;;;;5.87;2.20;;;;;;;20.51;34.70;100463.78;2336581;83;25789;-82
2021/06/01 20:30:02;;;;;;;6.97;2.77;;;;;;;20.50;34.76;100463.34;2337191;84;25660;-81
2021/06/01 20:33:22;;;;;;;6.80;2.45;;;;;;;20.49;34.73;100466.44;2337538;84;25702;-81
2021/06/01 20:36:43;;;;;;;4.70;1.90;;;;;;;20.45;34.74;100469.14;2337244;84;25647;-81
2021/06/01 20:40:09;;;;;;;6.92;2.60;;;;;;;20.39;34.91;100470.13;2338634;83;25706;-82
2021/06/01 20:43:33;;;;;;;14.43;2.20;;;;;;;20.35;35.01;100470.17;2375576;82;25696;-81
2021/06/01 20:46:54;;;;;;;3.58;2.20;;;;;;;20.33;35.10;100477.29;2378545;83;25731;-80
2021/06/01 20:50:16;;;;;;;4.22;2.12;;;;;;;20.37;35.53;100483.83;2307782;83;31372;-81
2021/06/01 20:53:36;;;;;;;6.70;2.10;;;;;;;20.47;36.17;100478.81;2294156;86;25697;-81
2021/06/01 20:56:59;;;;;;;10.90;2.15;;;;;;;20.57;36.57;100485.34;2327292;81;30730;-79
2021/06/01 21:00:21;;;;;;;7.58;2.40;;;;;;;20.64;36.86;100486.98;2377814;83;25714;-81
2021/06/01 21:03:46;;;;;;;7.22;2.40;;;;;;;20.63;36.96;100486.57;2377426;82;25846;-81
2021/06/01 21:07:07;;;;;;;8.63;2.50;;;;;;;20.59;37.09;100484.42;2377584;83;25711;-80
2021/06/01 21:10:28;;;;;;;6.58;2.37;;;;;;;20.56;37.24;100488.44;2377391;83;25645;-78
2021/06/01 21:13:49;;;;;;;7.33;2.20;;;;;;;20.52;37.48;100488.06;2451046;80;25555;-79
2021/06/01 21:17:10;;;;;;;3.30;2.20;;;;;;;20.56;37.68;100493.73;2420820;80;30805;-79
2021/06/01 21:20:31;;;;;;;5.72;1.92;;;;;;;20.59;37.72;100502.09;2480642;79;30756;-78
2021/06/01 21:23:55;;;;;;;3.42;2.05;;;;;;;20.56;37.84;100499.03;2464415;79;25658;-79
2021/06/01 21:27:18;;;;;;;6.95;2.65;;;;;;;20.55;37.66;100499.05;2458824;80;25649;-79
2021/06/01 21:30:44;;;;;;;9.25;2.50;;;;;;;20.49;37.21;100496.90;2458028;79;25603;-79
2021/06/01 21:34:09;;;;;;;3.52;2.37;;;;;;;20.40;36.87;100499.67;2448015;80;25650;-79
2021/06/01 21:37:31;;;;;;;7.78;2.50;;;;;;;20.27;36.64;100494.13;2447474;80;25699;-79
2021/06/01 21:40:53;;;;;;;6.28;2.55;;;;;;;20.15;36.64;100499.59;2440583;80;25567;-78
2021/06/01 21:44:18;;;;;;;4.65;2.22;;;;;;;20.04;36.42;100495.77;2417595;81;25576;-78
2021/06/01 21:47:51;;;;;;;6.15;2.65;;;;;;;20.01;36.48;100498.45;2419205;80;25874;-78
2021/06/01 21:51:14;;;;;;;7.65;2.55;;;;;;;19.92;36.64;100498.59;2462035;80;25612;-79
2021/06/01 21:54:37;;;;;;;4.35;2.40;;;;;;;19.73;36.66;100497.94;2462345;79;25571;-78
2021/06/01 21:57:59;;;;;;;9.10;2.67;;;;;;;19.67;36.60;100501.52;2462304;80;25873;-78
2021/06/01 22:01:20;;;;;;;5.22;2.37;;;;;;;19.67;36.73;100504.61;2462803;80;25536;-78
2021/06/01 22:04:41;;;;;;;11.08;3.27;;;;;;;19.65;36.73;100502.45;2462710;80;25684;-79
2021/06/01 22:08:03;;;;;;;6.42;3.58;;;;;;;19.59;36.82;100504.67;2462708;80;25675;-79
2021/06/01 22:11:24;;;;;;;10.68;3.35;;;;;;;19.56;37.17;100510.88;2462737;79;25584;-79
2021/06/01 22:14:45;;;;;;;3.72;3.20;;;;;;;19.53;37.39;100518.84;2462721;79;30722;-78
2021/06/01 22:18:13;;;;;;;5.05;2.98;;;;;;;19.45;37.69;100527.77;2458896;79;30904;-80
2021/06/01 22:21:36;;;;;;;7.17;3.37;;;;;;;19.34;38.17;100522.14;2452991;79;25517;-78
2021/06/01 22:24:57;;;;;;;7.08;3.35;;;;;;;19.29;38.24;100520.42;2462254;80;25769;-79
2021/06/01 22:28:19;;;;;;;6.92;4.22;;;;;;;19.29;38.30;100528.35;2462179;79;30897;-79
2021/06/01 22:31:48;;;;;;;9.73;3.47;;;;;;;19.28;38.36;100532.77;2462675;80;25358;-79
2021/06/01 22:35:04;;;;;;;6.75;3.70;;;;;;;19.19;38.85;100531.52;2460258;80;25521;-80
2021/06/01 22:38:25;;;;;;;11.48;3.25;;;;;;;19.11;38.96;100528.09;2462786;79;25370;-78
2021/06/01 22:41:47;;;;;;;3.70;2.75;;;;;;;19.02;38.67;100532.13;2456705;80;31480;-78
2021/06/01 22:45:11;;;;;;;5.28;3.20;;;;;;;18.97;38.57;100537.46;2447951;80;25580;-78
2021/06/01 22:48:34;;;;;;;7.05;3.10;;;;;;;18.94;38.70;100541.45;2452378;80;25518;-78